Time,TemperatureF,DewpointF,PressureIn,WindDirection,WindDirectionDegrees,WindSpeedMPH,WindSpeedGustMPH,Humidity,HourlyPrecipIn,Conditions,Clouds,dailyrainin,SoftwareType,DateUTC
2013-07-31 00:01:00,64.8,60.1,30.17,South,180,0.0,0.0,85,0.00,,,0.00,pywws,2013-07-31 04:01:00,
2013-07-31 00:03:00,64.8,60.1,30.17,South,180,0.0,0.0,85,0.00,,,0.00,pywws,2013-07-31 04:03:00,
2013-07-31 00:04:00,64.8,60.1,30.17,South,180,0.0,0.0,85,0.00,,,0.00,pywws,2013-07-31 04:04:00,
2013-07-31 00:06:00,64.8,60.1,30.17,South,180,0.0,0.0,85,0.00,,,0.00,pywws,2013-07-31 04:06:00,
2013-07-31 00:12:00,64.6,60.3,30.18,South,180,0.0,0.0,86,0.00,,,0.00,pywws,2013-07-31 04:12:00,
2013-07-31 00:18:00,64.6,60.3,30.18,South,180,0.0,0.0,86,0.00,,,0.00,pywws,2013-07-31 04:18:00,
2013-07-31 00:23:00,64.4,60.1,30.18,South,180,0.0,0.0,86,0.00,,,0.00,pywws,2013-07-31 04:23:00,
2013-07-31 00:29:00,64.4,60.1,30.18,South,180,0.0,0.0,86,0.00,,,0.00,pywws,2013-07-31 04:29:00,
2013-07-31 00:34:00,64.2,59.9,30.18,South,180,0.7,1.6,86,0.00,,,0.00,pywws,2013-07-31 04:34:00,
2013-07-31 00:39:00,64.2,59.9,30.18,South,180,0.7,1.6,86,0.00,,,0.00,pywws,2013-07-31 04:39:00,
2013-07-31 00:44:00,64.2,59.9,30.18,South,180,0.0,0.7,86,0.00,,,0.00,pywws,2013-07-31 04:44:00,
2013-07-31 00:49:00,64.0,60.1,30.18,South,180,0.0,0.0,87,0.00,,,0.00,pywws,2013-07-31 04:49:00,
2013-07-31 00:54:00,64.0,60.1,30.18,South,180,0.0,0.0,87,0.00,,,0.00,pywws,2013-07-31 04:54:00,
2013-07-31 00:59:00,64.2,60.3,30.17,South,180,1.6,2.2,87,0.00,,,0.00,pywws,2013-07-31 04:59:00,
2013-07-31 01:04:00,64.0,60.1,30.17,South,180,0.0,0.0,87,0.00,,,0.00,pywws,2013-07-31 05:04:00,
2013-07-31 01:09:00,64.0,60.1,30.17,South,180,0.0,0.0,87,0.00,,,0.00,pywws,2013-07-31 05:09:00,
2013-07-31 01:14:00,64.2,60.3,30.17,South,180,0.0,0.0,87,0.00,,,0.00,pywws,2013-07-31 05:14:00,
2013-07-31 01:19:00,64.4,60.8,30.17,South,180,0.7,2.2,88,0.00,,,0.00,pywws,2013-07-31 05:19:00,
2013-07-31 01:24:00,64.2,60.3,30.17,South,180,0.7,1.6,87,0.00,,,0.00,pywws,2013-07-31 05:24:00,
2013-07-31 01:29:00,64.2,60.3,30.17,South,180,0.0,0.0,87,0.00,,,0.00,pywws,2013-07-31 05:29:00,
2013-07-31 01:34:00,64.4,60.8,30.17,South,180,0.7,1.6,88,0.00,,,0.00,pywws,2013-07-31 05:34:00,
2013-07-31 01:39:00,64.6,60.9,30.17,South,180,0.0,0.0,88,0.00,,,0.00,pywws,2013-07-31 05:39:00,
2013-07-31 01:44:00,64.4,60.8,30.17,South,180,0.0,0.0,88,0.00,,,0.00,pywws,2013-07-31 05:44:00,
2013-07-31 01:49:00,64.6,60.9,30.17,South,180,0.0,1.6,88,0.00,,,0.00,pywws,2013-07-31 05:49:00,
2013-07-31 01:54:00,64.8,61.1,30.17,South,180,0.7,1.6,88,0.00,,,0.00,pywws,2013-07-31 05:54:00,
2013-07-31 01:59:00,64.6,60.9,30.17,South,180,0.0,0.0,88,0.00,,,0.00,pywws,2013-07-31 05:59:00,
2013-07-31 02:04:00,64.8,61.1,30.16,South,180,0.0,1.6,88,0.00,,,0.00,pywws,2013-07-31 06:04:00,
2013-07-31 02:09:00,64.8,60.8,30.16,South,180,0.0,0.0,87,0.00,,,0.00,pywws,2013-07-31 06:09:00,
2013-07-31 02:14:00,64.8,60.8,30.16,South,180,0.7,1.6,87,0.00,,,0.00,pywws,2013-07-31 06:14:00,
2013-07-31 02:19:00,64.6,60.6,30.16,South,180,0.7,1.6,87,0.00,,,0.00,pywws,2013-07-31 06:19:00,
2013-07-31 02:24:00,64.6,60.9,30.16,South,180,0.7,3.1,88,0.00,,,0.00,pywws,2013-07-31 06:24:00,
2013-07-31 02:29:00,64.8,61.1,30.16,South,180,0.7,1.6,88,0.00,,,0.00,pywws,2013-07-31 06:29:00,
2013-07-31 02:34:00,64.8,60.8,30.16,South,180,0.0,0.7,87,0.00,,,0.00,pywws,2013-07-31 06:34:00,
2013-07-31 02:39:00,64.4,60.4,30.16,South,180,0.0,0.0,87,0.00,,,0.00,pywws,2013-07-31 06:39:00,
2013-07-31 02:44:00,64.4,60.8,30.16,South,180,0.7,2.2,88,0.00,,,0.00,pywws,2013-07-31 06:44:00,
2013-07-31 02:49:00,64.2,60.3,30.16,South,180,0.0,0.7,87,0.00,,,0.00,pywws,2013-07-31 06:49:00,
2013-07-31 02:54:00,64.2,60.6,30.16,SE,135,0.0,0.0,88,0.00,,,0.00,pywws,2013-07-31 06:54:00,
2013-07-31 02:59:00,64.4,60.8,30.16,South,180,0.7,1.6,88,0.00,,,0.00,pywws,2013-07-31 06:59:00,
2013-07-31 03:04:00,64.4,60.8,30.16,South,180,1.6,2.2,88,0.00,,,0.00,pywws,2013-07-31 07:04:00,
2013-07-31 03:09:00,64.6,60.9,30.16,South,180,0.0,0.0,88,0.00,,,0.00,pywws,2013-07-31 07:09:00,
2013-07-31 03:14:00,64.2,60.3,30.16,South,180,0.0,0.0,87,0.00,,,0.00,pywws,2013-07-31 07:14:00,
2013-07-31 03:19:00,64.4,60.8,30.16,South,180,0.7,2.2,88,0.00,,,0.00,pywws,2013-07-31 07:19:00,
2013-07-31 03:24:00,64.8,60.8,30.16,East,90,0.7,1.6,87,0.00,,,0.00,pywws,2013-07-31 07:24:00,
2013-07-31 03:29:00,64.8,60.8,30.16,South,180,0.7,1.6,87,0.00,,,0.00,pywws,2013-07-31 07:29:00,
2013-07-31 03:34:00,64.6,60.6,30.16,South,180,0.0,1.6,87,0.00,,,0.00,pywws,2013-07-31 07:34:00,
2013-07-31 03:39:00,64.8,60.8,30.15,South,180,0.7,3.1,87,0.00,,,0.00,pywws,2013-07-31 07:39:00,
2013-07-31 03:44:00,64.6,60.6,30.15,South,180,0.7,2.2,87,0.00,,,0.00,pywws,2013-07-31 07:44:00,
2013-07-31 03:49:00,64.8,60.5,30.15,South,180,0.0,1.6,86,0.00,,,0.00,pywws,2013-07-31 07:49:00,
2013-07-31 03:54:00,64.6,60.3,30.15,South,180,0.7,1.6,86,0.00,,,0.00,pywws,2013-07-31 07:54:00,
2013-07-31 03:59:00,64.8,60.5,30.14,South,180,0.7,1.6,86,0.00,,,0.00,pywws,2013-07-31 07:59:00,
2013-07-31 04:04:00,64.8,60.5,30.14,South,180,0.7,2.2,86,0.00,,,0.00,pywws,2013-07-31 08:04:00,
2013-07-31 04:09:00,64.8,60.1,30.14,South,180,0.7,1.6,85,0.00,,,0.00,pywws,2013-07-31 08:09:00,
2013-07-31 04:14:00,64.6,60.0,30.14,South,180,1.6,3.1,85,0.00,,,0.00,pywws,2013-07-31 08:14:00,
2013-07-31 04:19:00,64.4,59.8,30.14,South,180,0.0,0.7,85,0.00,,,0.00,pywws,2013-07-31 08:19:00,
2013-07-31 04:24:00,64.6,60.0,30.15,South,180,0.7,1.6,85,0.00,,,0.00,pywws,2013-07-31 08:24:00,
2013-07-31 04:29:00,64.8,60.1,30.15,South,180,0.7,1.6,85,0.00,,,0.00,pywws,2013-07-31 08:29:00,
2013-07-31 04:34:00,64.8,60.1,30.14,South,180,0.7,2.2,85,0.00,,,0.00,pywws,2013-07-31 08:34:00,
2013-07-31 04:39:00,64.8,60.1,30.14,SE,135,0.0,0.0,85,0.00,,,0.00,pywws,2013-07-31 08:39:00,
2013-07-31 04:44:00,64.8,60.1,30.14,SE,135,0.7,2.2,85,0.00,,,0.00,pywws,2013-07-31 08:44:00,
2013-07-31 04:49:00,64.8,60.1,30.14,South,180,1.6,3.1,85,0.00,,,0.00,pywws,2013-07-31 08:49:00,
2013-07-31 04:54:00,64.8,60.1,30.14,SE,135,2.2,3.1,85,0.00,,,0.00,pywws,2013-07-31 08:54:00,
2013-07-31 04:59:00,64.8,60.1,30.14,South,180,0.7,3.1,85,0.00,,,0.00,pywws,2013-07-31 08:59:00,
2013-07-31 05:04:00,64.9,60.0,30.14,SE,135,0.7,2.2,84,0.00,,,0.00,pywws,2013-07-31 09:04:00,
2013-07-31 05:09:00,64.9,60.0,30.14,South,180,2.2,3.8,84,0.00,,,0.00,pywws,2013-07-31 09:09:00,
2013-07-31 05:14:00,65.1,60.2,30.14,South,180,1.6,2.2,84,0.00,,,0.00,pywws,2013-07-31 09:14:00,
2013-07-31 05:19:00,64.8,60.1,30.14,South,180,0.0,1.6,85,0.00,,,0.00,pywws,2013-07-31 09:19:00,
2013-07-31 05:24:00,64.9,60.3,30.14,South,180,0.7,1.6,85,0.00,,,0.00,pywws,2013-07-31 09:24:00,
2013-07-31 05:29:00,64.6,60.0,30.14,South,180,0.0,0.7,85,0.00,,,0.00,pywws,2013-07-31 09:29:00,
2013-07-31 05:34:00,64.8,60.1,30.14,SE,135,2.2,3.8,85,0.00,,,0.00,pywws,2013-07-31 09:34:00,
2013-07-31 05:39:00,64.6,60.3,30.13,South,180,0.7,1.6,86,0.00,,,0.00,pywws,2013-07-31 09:39:00,
2013-07-31 05:44:00,64.8,60.5,30.13,South,180,1.6,3.1,86,0.00,,,0.00,pywws,2013-07-31 09:44:00,
2013-07-31 05:49:00,64.8,60.5,30.13,South,180,0.7,1.6,86,0.00,,,0.00,pywws,2013-07-31 09:49:00,
2013-07-31 05:54:00,64.6,60.3,30.13,South,180,1.6,2.2,86,0.00,,,0.00,pywws,2013-07-31 09:54:00,
2013-07-31 05:59:00,64.6,60.3,30.14,South,180,0.7,1.6,86,0.00,,,0.00,pywws,2013-07-31 09:59:00,
2013-07-31 06:04:00,64.6,60.3,30.14,South,180,0.7,2.2,86,0.00,,,0.00,pywws,2013-07-31 10:04:00,
2013-07-31 06:09:00,64.6,60.3,30.14,SE,135,1.6,2.2,86,0.00,,,0.00,pywws,2013-07-31 10:09:00,
2013-07-31 06:14:00,64.4,60.1,30.14,South,180,0.7,1.6,86,0.00,,,0.00,pywws,2013-07-31 10:14:00,
2013-07-31 06:19:00,64.4,60.4,30.14,South,180,1.6,3.1,87,0.00,,,0.00,pywws,2013-07-31 10:19:00,
2013-07-31 06:24:00,64.4,60.4,30.14,NE,45,0.0,1.6,87,0.00,,,0.00,pywws,2013-07-31 10:24:00,
2013-07-31 06:29:00,64.4,60.4,30.14,South,180,0.7,1.6,87,0.00,,,0.00,pywws,2013-07-31 10:29:00,
2013-07-31 06:34:00,64.2,59.9,30.14,South,180,0.7,2.2,86,0.00,,,0.00,pywws,2013-07-31 10:34:00,
2013-07-31 06:39:00,64.4,60.4,30.14,South,180,0.7,1.6,87,0.00,,,0.00,pywws,2013-07-31 10:39:00,
2013-07-31 06:44:00,64.2,59.9,30.14,South,180,1.6,3.1,86,0.00,,,0.00,pywws,2013-07-31 10:44:00,
2013-07-31 06:49:00,64.4,60.4,30.14,South,180,0.7,2.2,87,0.00,,,0.00,pywws,2013-07-31 10:49:00,
2013-07-31 06:54:00,64.2,60.3,30.14,South,180,1.6,3.1,87,0.00,,,0.00,pywws,2013-07-31 10:54:00,
2013-07-31 06:59:00,64.6,60.6,30.14,South,180,2.2,3.1,87,0.00,,,0.00,pywws,2013-07-31 10:59:00,
2013-07-31 07:04:00,64.6,60.6,30.14,South,180,0.7,2.2,87,0.00,,,0.00,pywws,2013-07-31 11:04:00,
2013-07-31 07:09:00,64.8,60.8,30.14,South,180,3.1,4.5,87,0.00,,,0.00,pywws,2013-07-31 11:09:00,
2013-07-31 07:14:00,65.1,60.8,30.14,South,180,1.6,2.2,86,0.00,,,0.00,pywws,2013-07-31 11:14:00,
2013-07-31 07:19:00,65.3,61.0,30.14,South,180,1.6,3.8,86,0.00,,,0.00,pywws,2013-07-31 11:19:00,
2013-07-31 07:24:00,65.5,61.2,30.14,South,180,0.7,2.2,86,0.00,,,0.00,pywws,2013-07-31 11:24:00,
2013-07-31 07:29:00,66.0,61.4,30.14,SE,135,3.1,3.8,85,0.00,,,0.00,pywws,2013-07-31 11:29:00,
2013-07-31 07:34:00,66.6,61.6,30.14,East,90,3.8,4.5,84,0.00,,,0.00,pywws,2013-07-31 11:34:00,
2013-07-31 07:39:00,66.9,61.6,30.14,SE,135,2.2,3.8,83,0.00,,,0.00,pywws,2013-07-31 11:39:00,
2013-07-31 07:44:00,66.9,60.9,30.14,South,180,3.1,4.5,81,0.00,,,0.00,pywws,2013-07-31 11:44:00,
2013-07-31 07:49:00,67.1,61.1,30.13,South,180,3.1,4.5,81,0.00,,,0.00,pywws,2013-07-31 11:49:00,
2013-07-31 07:54:00,67.1,61.1,30.13,South,180,0.0,1.6,81,0.00,,,0.00,pywws,2013-07-31 11:54:00,
2013-07-31 07:59:00,67.1,61.4,30.14,SE,135,2.2,3.8,82,0.00,,,0.00,pywws,2013-07-31 11:59:00,
2013-07-31 08:04:00,67.3,61.6,30.14,South,180,0.0,0.7,82,0.00,,,0.00,pywws,2013-07-31 12:04:00,
2013-07-31 08:09:00,67.3,61.2,30.14,SE,135,4.5,6.0,81,0.00,,,0.00,pywws,2013-07-31 12:09:00,
2013-07-31 08:14:00,67.3,61.2,30.14,South,180,0.7,2.2,81,0.00,,,0.00,pywws,2013-07-31 12:14:00,
2013-07-31 08:19:00,67.5,61.4,30.13,SE,135,3.8,6.0,81,0.00,,,0.00,pywws,2013-07-31 12:19:00,
2013-07-31 08:24:00,67.6,61.6,30.13,South,180,0.7,2.2,81,0.00,,,0.00,pywws,2013-07-31 12:24:00,
2013-07-31 08:29:00,68.2,61.4,30.14,South,180,1.6,2.2,79,0.00,,,0.00,pywws,2013-07-31 12:29:00,
2013-07-31 08:34:00,68.4,61.2,30.14,South,180,1.6,3.1,78,0.00,,,0.00,pywws,2013-07-31 12:34:00,
2013-07-31 08:39:00,68.5,61.0,30.13,South,180,3.1,4.5,77,0.00,,,0.00,pywws,2013-07-31 12:39:00,
2013-07-31 08:44:00,69.3,61.4,30.13,South,180,1.6,3.1,76,0.00,,,0.00,pywws,2013-07-31 12:44:00,
2013-07-31 08:49:00,69.6,61.7,30.13,South,180,3.1,3.8,76,0.00,,,0.00,pywws,2013-07-31 12:49:00,
2013-07-31 08:54:00,70.2,61.5,30.13,SE,135,3.1,6.0,74,0.00,,,0.00,pywws,2013-07-31 12:54:00,
2013-07-31 08:59:00,71.4,62.3,30.13,SE,135,1.6,3.1,73,0.00,,,0.00,pywws,2013-07-31 12:59:00,
2013-07-31 09:04:00,71.6,61.7,30.13,SE,135,1.6,4.5,71,0.00,,,0.00,pywws,2013-07-31 13:04:00,
2013-07-31 09:09:00,71.4,61.5,30.13,SE,135,3.8,5.4,71,0.00,,,0.00,pywws,2013-07-31 13:09:00,
2013-07-31 09:14:00,73.2,63.2,30.13,West,270,1.6,2.2,71,0.00,,,0.00,pywws,2013-07-31 13:14:00,
2013-07-31 09:19:00,73.8,62.5,30.13,South,180,5.4,7.6,68,0.00,,,0.00,pywws,2013-07-31 13:19:00,
2013-07-31 09:24:00,72.1,60.1,30.13,South,180,3.1,3.8,66,0.00,,,0.00,pywws,2013-07-31 13:24:00,
2013-07-31 09:29:00,72.5,61.3,30.13,South,180,0.0,0.0,68,0.00,,,0.00,pywws,2013-07-31 13:29:00,
2013-07-31 09:34:00,73.6,62.8,30.13,West,270,0.7,1.6,69,0.00,,,0.00,pywws,2013-07-31 13:34:00,
2013-07-31 09:39:00,72.5,61.3,30.13,South,180,0.0,1.6,68,0.00,,,0.00,pywws,2013-07-31 13:39:00,
2013-07-31 09:44:00,73.8,62.9,30.13,SE,135,3.1,4.5,69,0.00,,,0.00,pywws,2013-07-31 13:44:00,
2013-07-31 09:49:00,74.3,63.0,30.13,SE,135,4.5,8.3,68,0.00,,,0.00,pywws,2013-07-31 13:49:00,
2013-07-31 09:54:00,74.1,62.9,30.13,SE,135,2.2,4.5,68,0.00,,,0.00,pywws,2013-07-31 13:54:00,
2013-07-31 09:59:00,73.4,61.8,30.13,SE,135,2.2,4.5,67,0.00,,,0.00,pywws,2013-07-31 13:59:00,
2013-07-31 10:04:00,73.6,62.4,30.12,East,90,1.6,2.2,68,0.00,,,0.00,pywws,2013-07-31 14:04:00,
2013-07-31 10:09:00,73.4,61.3,30.12,SE,135,2.2,3.1,66,0.00,,,0.00,pywws,2013-07-31 14:09:00,
2013-07-31 10:14:00,77.4,64.2,30.12,SW,225,0.0,0.0,64,0.00,,,0.00,pywws,2013-07-31 14:14:00,
2013-07-31 10:19:00,77.9,63.8,30.12,South,180,0.7,2.2,62,0.00,,,0.00,pywws,2013-07-31 14:19:00,
2013-07-31 10:24:00,77.0,63.9,30.12,NW,315,0.7,3.1,64,0.00,,,0.00,pywws,2013-07-31 14:24:00,
2013-07-31 10:29:00,75.0,61.1,30.12,SE,135,0.0,1.6,62,0.00,,,0.00,pywws,2013-07-31 14:29:00,
2013-07-31 10:34:00,77.2,62.7,30.12,SE,135,2.2,5.4,61,0.00,,,0.00,pywws,2013-07-31 14:34:00,
2013-07-31 10:39:00,74.8,62.7,30.12,South,180,2.2,5.4,66,0.00,,,0.00,pywws,2013-07-31 14:39:00,
2013-07-31 10:45:00,76.1,63.0,30.11,SE,135,6.0,9.2,64,0.00,,,0.00,pywws,2013-07-31 14:45:00,
2013-07-31 10:51:00,75.0,62.0,30.11,NE,45,2.2,4.5,64,0.00,,,0.00,pywws,2013-07-31 14:51:00,
2013-07-31 10:56:00,75.4,62.3,30.11,NE,45,3.8,5.4,64,0.00,,,0.00,pywws,2013-07-31 14:56:00,
2013-07-31 11:02:00,77.9,62.4,30.11,SE,135,4.5,7.6,59,0.00,,,0.00,pywws,2013-07-31 15:02:00,
2013-07-31 11:07:00,75.9,59.6,30.11,SE,135,6.9,8.3,57,0.00,,,0.00,pywws,2013-07-31 15:07:00,
2013-07-31 11:13:00,76.8,62.3,30.11,South,180,3.1,4.5,61,0.00,,,0.00,pywws,2013-07-31 15:13:00,
2013-07-31 11:19:00,76.5,60.6,30.11,SE,135,4.5,6.9,58,0.00,,,0.00,pywws,2013-07-31 15:19:00,
2013-07-31 11:24:00,75.0,60.6,30.10,SE,135,6.0,6.9,61,0.00,,,0.00,pywws,2013-07-31 15:24:00,
2013-07-31 11:29:00,74.8,59.5,30.10,SE,135,6.0,8.3,59,0.00,,,0.00,pywws,2013-07-31 15:29:00,
2013-07-31 11:34:00,75.4,59.6,30.10,South,180,3.1,4.5,58,0.00,,,0.00,pywws,2013-07-31 15:34:00,
2013-07-31 11:39:00,76.5,61.0,30.10,South,180,0.7,2.2,59,0.00,,,0.00,pywws,2013-07-31 15:39:00,
2013-07-31 11:44:00,75.9,61.0,30.10,South,180,1.6,4.5,60,0.00,,,0.00,pywws,2013-07-31 15:44:00,
2013-07-31 11:49:00,75.7,61.3,30.10,SE,135,3.1,4.5,61,0.00,,,0.00,pywws,2013-07-31 15:49:00,
2013-07-31 11:54:00,74.5,60.6,30.10,NW,315,2.2,3.1,62,0.00,,,0.00,pywws,2013-07-31 15:54:00,
2013-07-31 11:59:00,75.4,62.3,30.10,South,180,0.0,0.7,64,0.00,,,0.00,pywws,2013-07-31 15:59:00,
2013-07-31 12:04:00,74.5,62.4,30.10,South,180,5.4,9.2,66,0.00,,,0.00,pywws,2013-07-31 16:04:00,
2013-07-31 12:09:00,74.8,63.1,30.11,SE,135,3.8,6.0,67,0.00,,,0.00,pywws,2013-07-31 16:09:00,
2013-07-31 12:14:00,74.3,62.2,30.11,SE,135,6.9,10.7,66,0.00,,,0.00,pywws,2013-07-31 16:14:00,
2013-07-31 12:19:00,73.2,60.7,30.11,SE,135,5.4,7.6,65,0.00,,,0.00,pywws,2013-07-31 16:19:00,
2013-07-31 12:24:00,75.0,62.4,30.11,South,180,2.2,3.8,65,0.00,,,0.00,pywws,2013-07-31 16:24:00,
2013-07-31 12:29:00,74.1,61.6,30.10,SE,135,8.3,9.8,65,0.00,,,0.00,pywws,2013-07-31 16:29:00,
2013-07-31 12:34:00,73.9,62.3,30.10,SE,135,2.2,4.5,67,0.00,,,0.00,pywws,2013-07-31 16:34:00,
2013-07-31 12:39:00,73.9,62.3,30.10,South,180,1.6,3.1,67,0.00,,,0.00,pywws,2013-07-31 16:39:00,
2013-07-31 12:44:00,73.4,62.2,30.10,South,180,3.8,4.5,68,0.00,,,0.00,pywws,2013-07-31 16:44:00,
2013-07-31 12:49:00,74.7,63.8,30.10,NE,45,1.6,2.2,69,0.00,,,0.00,pywws,2013-07-31 16:49:00,
2013-07-31 12:54:00,74.5,63.6,30.09,SW,225,2.2,2.2,69,0.00,,,0.00,pywws,2013-07-31 16:54:00,
2013-07-31 12:59:00,74.1,62.9,30.09,East,90,4.5,7.6,68,0.00,,,0.00,pywws,2013-07-31 16:59:00,
2013-07-31 13:04:00,74.3,63.0,30.09,SE,135,7.6,10.7,68,0.00,,,0.00,pywws,2013-07-31 17:04:00,
2013-07-31 13:09:00,75.7,64.0,30.08,North,0,8.3,10.7,67,0.00,,,0.00,pywws,2013-07-31 17:09:00,
2013-07-31 13:14:00,78.4,65.7,30.09,South,180,0.7,2.2,65,0.00,,,0.00,pywws,2013-07-31 17:14:00,
2013-07-31 13:19:00,76.6,63.5,30.08,South,180,5.4,6.9,64,0.00,,,0.00,pywws,2013-07-31 17:19:00,
2013-07-31 13:24:00,76.3,63.2,30.08,SE,135,8.3,9.8,64,0.00,,,0.00,pywws,2013-07-31 17:24:00,
2013-07-31 13:29:00,76.5,63.8,30.08,SE,135,6.0,7.6,65,0.00,,,0.00,pywws,2013-07-31 17:29:00,
2013-07-31 13:34:00,77.9,64.3,30.08,SW,225,7.6,9.2,63,0.00,,,0.00,pywws,2013-07-31 17:34:00,
2013-07-31 13:39:00,77.4,63.3,30.08,South,180,3.1,5.4,62,0.00,,,0.00,pywws,2013-07-31 17:39:00,
2013-07-31 13:44:00,77.0,61.6,30.08,South,180,4.5,6.9,59,0.00,,,0.00,pywws,2013-07-31 17:44:00,
2013-07-31 13:49:00,76.1,60.7,30.08,South,180,3.8,5.4,59,0.00,,,0.00,pywws,2013-07-31 17:49:00,
2013-07-31 13:54:00,76.8,63.3,30.08,SE,135,0.0,1.6,63,0.00,,,0.00,pywws,2013-07-31 17:54:00,
2013-07-31 13:59:00,77.0,63.4,30.08,South,180,2.2,3.8,63,0.00,,,0.00,pywws,2013-07-31 17:59:00,
2013-07-31 14:04:00,76.1,62.1,30.07,South,180,3.1,4.5,62,0.00,,,0.00,pywws,2013-07-31 18:04:00,
2013-07-31 14:09:00,75.9,62.4,30.07,SE,135,5.4,6.9,63,0.00,,,0.00,pywws,2013-07-31 18:09:00,
2013-07-31 14:14:00,76.3,61.8,30.07,South,180,3.8,6.0,61,0.00,,,0.00,pywws,2013-07-31 18:14:00,
2013-07-31 14:19:00,76.5,62.5,30.06,SE,135,3.8,6.0,62,0.00,,,0.00,pywws,2013-07-31 18:19:00,
2013-07-31 14:24:00,76.5,63.4,30.06,SE,135,9.2,12.1,64,0.00,,,0.00,pywws,2013-07-31 18:24:00,
2013-07-31 14:29:00,76.5,63.4,30.06,SW,225,6.0,6.9,64,0.00,,,0.00,pywws,2013-07-31 18:29:00,
2013-07-31 14:34:00,77.2,63.6,30.07,South,180,3.8,6.9,63,0.00,,,0.00,pywws,2013-07-31 18:34:00,
2013-07-31 14:39:00,77.7,62.7,30.06,SW,225,3.8,6.9,60,0.00,,,0.00,pywws,2013-07-31 18:39:00,
2013-07-31 14:44:00,77.2,62.7,30.06,SE,135,6.0,11.4,61,0.00,,,0.00,pywws,2013-07-31 18:44:00,
2013-07-31 14:49:00,77.4,63.3,30.06,South,180,3.8,8.3,62,0.00,,,0.00,pywws,2013-07-31 18:49:00,
2013-07-31 14:54:00,76.6,63.1,30.06,South,180,4.5,7.6,63,0.00,,,0.00,pywws,2013-07-31 18:54:00,
2013-07-31 14:59:00,77.5,63.9,30.06,SE,135,0.7,2.2,63,0.00,,,0.00,pywws,2013-07-31 18:59:00,
2013-07-31 15:04:00,76.5,63.4,30.06,South,180,5.4,6.0,64,0.00,,,0.00,pywws,2013-07-31 19:04:00,
2013-07-31 15:09:00,76.8,64.1,30.06,SW,225,0.0,0.7,65,0.00,,,0.00,pywws,2013-07-31 19:09:00,
2013-07-31 15:14:00,76.5,63.8,30.06,West,270,0.0,1.6,65,0.00,,,0.00,pywws,2013-07-31 19:14:00,
2013-07-31 15:19:00,75.7,62.7,30.06,SE,135,2.2,3.8,64,0.00,,,0.00,pywws,2013-07-31 19:19:00,
2013-07-31 15:24:00,75.9,63.3,30.06,West,270,0.7,1.6,65,0.00,,,0.00,pywws,2013-07-31 19:24:00,
2013-07-31 15:29:00,75.9,63.3,30.06,South,180,3.8,9.2,65,0.00,,,0.00,pywws,2013-07-31 19:29:00,
2013-07-31 15:34:00,76.1,63.5,30.05,SE,135,3.1,3.8,65,0.00,,,0.00,pywws,2013-07-31 19:34:00,
2013-07-31 15:39:00,75.7,63.1,30.05,South,180,5.4,7.6,65,0.00,,,0.00,pywws,2013-07-31 19:39:00,
2013-07-31 15:44:00,75.7,63.1,30.05,South,180,0.7,1.6,65,0.00,,,0.00,pywws,2013-07-31 19:44:00,
2013-07-31 15:49:00,75.7,62.7,30.04,SE,135,6.9,8.3,64,0.00,,,0.00,pywws,2013-07-31 19:49:00,
2013-07-31 15:54:00,76.6,63.5,30.04,South,180,7.6,13.0,64,0.00,,,0.00,pywws,2013-07-31 19:54:00,
2013-07-31 15:59:00,75.9,62.8,30.04,SE,135,6.9,9.2,64,0.00,,,0.00,pywws,2013-07-31 19:59:00,
2013-07-31 16:04:00,76.5,63.4,30.04,SE,135,6.9,8.3,64,0.00,,,0.00,pywws,2013-07-31 20:04:00,
2013-07-31 16:09:00,75.6,62.1,30.04,SE,135,3.8,7.6,63,0.00,,,0.00,pywws,2013-07-31 20:09:00,
2013-07-31 16:14:00,75.9,62.8,30.04,South,180,1.6,3.1,64,0.00,,,0.00,pywws,2013-07-31 20:14:00,
2013-07-31 16:19:00,76.1,63.0,30.03,North,0,5.4,6.9,64,0.00,,,0.00,pywws,2013-07-31 20:19:00,
2013-07-31 16:24:00,76.5,63.4,30.03,West,270,3.1,3.8,64,0.00,,,0.00,pywws,2013-07-31 20:24:00,
2013-07-31 16:30:00,76.6,63.5,30.03,SW,225,5.4,10.7,64,0.00,,,0.00,pywws,2013-07-31 20:30:00,
2013-07-31 16:35:00,76.6,64.0,30.03,SE,135,3.1,5.4,65,0.00,,,0.00,pywws,2013-07-31 20:35:00,
2013-07-31 16:40:00,76.1,63.5,30.03,South,180,6.9,8.3,65,0.00,,,0.00,pywws,2013-07-31 20:40:00,
2013-07-31 16:46:00,76.5,63.8,30.03,SE,135,2.2,3.8,65,0.00,,,0.00,pywws,2013-07-31 20:46:00,
2013-07-31 16:51:00,77.5,64.4,30.03,South,180,5.4,9.2,64,0.00,,,0.00,pywws,2013-07-31 20:51:00,
2013-07-31 16:56:00,77.0,63.9,30.03,South,180,3.8,5.4,64,0.00,,,0.00,pywws,2013-07-31 20:56:00,
2013-07-31 17:02:00,75.7,63.6,30.03,South,180,3.8,5.4,66,0.00,,,0.00,pywws,2013-07-31 21:02:00,
2013-07-31 17:07:00,75.7,63.6,30.03,SE,135,4.5,6.9,66,0.00,,,0.00,pywws,2013-07-31 21:07:00,
2013-07-31 17:12:00,75.7,63.1,30.02,West,270,3.1,3.8,65,0.00,,,0.00,pywws,2013-07-31 21:12:00,
2013-07-31 17:17:00,76.3,64.1,30.02,South,180,6.9,10.7,66,0.00,,,0.00,pywws,2013-07-31 21:17:00,
2013-07-31 17:23:00,76.5,64.2,30.02,South,180,3.1,5.4,66,0.00,,,0.00,pywws,2013-07-31 21:23:00,
2013-07-31 17:28:00,76.6,64.0,30.01,SE,135,2.2,3.8,65,0.00,,,0.00,pywws,2013-07-31 21:28:00,
2013-07-31 17:34:00,76.5,64.2,30.02,SE,135,4.5,8.3,66,0.00,,,0.00,pywws,2013-07-31 21:34:00,
2013-07-31 17:39:00,76.5,63.8,30.01,East,90,3.1,4.5,65,0.00,,,0.00,pywws,2013-07-31 21:39:00,
2013-07-31 17:44:00,77.0,63.9,30.01,South,180,3.1,3.8,64,0.00,,,0.00,pywws,2013-07-31 21:44:00,
2013-07-31 17:50:00,77.5,64.4,30.01,SE,135,6.0,9.2,64,0.00,,,0.00,pywws,2013-07-31 21:50:00,
2013-07-31 17:55:00,76.6,63.5,30.01,South,180,6.9,8.3,64,0.00,,,0.00,pywws,2013-07-31 21:55:00,
2013-07-31 18:00:00,77.5,63.9,30.01,South,180,1.6,3.1,63,0.00,,,0.00,pywws,2013-07-31 22:00:00,
2013-07-31 18:06:00,77.5,63.9,30.01,South,180,1.6,3.1,63,0.00,,,0.00,pywws,2013-07-31 22:06:00,
2013-07-31 18:11:00,76.5,63.8,30.01,SE,135,6.9,8.3,65,0.00,,,0.00,pywws,2013-07-31 22:11:00,
2013-07-31 18:16:00,76.5,64.2,30.00,South,180,3.1,5.4,66,0.00,,,0.00,pywws,2013-07-31 22:16:00,
2013-07-31 18:21:00,76.8,64.6,30.00,SE,135,3.8,6.0,66,0.00,,,0.00,pywws,2013-07-31 22:21:00,
2013-07-31 18:27:00,77.0,64.3,30.00,South,180,6.9,9.2,65,0.00,,,0.00,pywws,2013-07-31 22:27:00,
2013-07-31 18:32:00,76.8,64.6,30.00,SE,135,10.7,13.0,66,0.00,,,0.00,pywws,2013-07-31 22:32:00,
2013-07-31 18:38:00,75.7,63.1,29.99,SE,135,0.7,1.6,65,0.00,,,0.00,pywws,2013-07-31 22:38:00,
2013-07-31 18:43:00,76.1,63.5,29.99,South,180,0.0,1.6,65,0.00,,,0.00,pywws,2013-07-31 22:43:00,
2013-07-31 18:48:00,75.2,63.0,29.99,South,180,2.2,3.8,66,0.00,,,0.00,pywws,2013-07-31 22:48:00,
2013-07-31 18:54:00,75.2,63.0,29.99,SE,135,4.5,6.0,66,0.00,,,0.00,pywws,2013-07-31 22:54:00,
2013-07-31 18:59:00,75.0,62.9,29.99,South,180,2.2,3.1,66,0.00,,,0.00,pywws,2013-07-31 22:59:00,
2013-07-31 19:04:00,75.0,62.4,29.99,South,180,1.6,3.1,65,0.00,,,0.00,pywws,2013-07-31 23:04:00,
2013-07-31 19:10:00,75.2,61.7,29.99,South,180,3.8,8.3,63,0.00,,,0.00,pywws,2013-07-31 23:10:00,
2013-07-31 19:15:00,75.2,60.8,29.99,South,180,11.4,15.2,61,0.00,,,0.00,pywws,2013-07-31 23:15:00,
2013-07-31 19:20:00,75.2,61.3,29.99,NE,45,6.0,7.6,62,0.00,,,0.00,pywws,2013-07-31 23:20:00,
2013-07-31 19:26:00,75.0,61.1,29.99,South,180,5.4,9.2,62,0.00,,,0.00,pywws,2013-07-31 23:26:00,
2013-07-31 19:31:00,75.2,61.7,29.98,South,180,2.2,3.8,63,0.00,,,0.00,pywws,2013-07-31 23:31:00,
2013-07-31 19:36:00,74.7,62.1,29.98,SE,135,4.5,6.0,65,0.00,,,0.00,pywws,2013-07-31 23:36:00,
2013-07-31 19:41:00,75.0,62.4,29.98,South,180,3.8,5.4,65,0.00,,,0.00,pywws,2013-07-31 23:41:00,
2013-07-31 19:46:00,74.7,62.5,29.98,South,180,1.6,3.1,66,0.00,,,0.00,pywws,2013-07-31 23:46:00,
2013-07-31 19:51:00,74.3,62.2,29.98,South,180,3.1,4.5,66,0.00,,,0.00,pywws,2013-07-31 23:51:00,
2013-07-31 19:56:00,74.3,62.6,29.98,SE,135,4.5,9.2,67,0.00,,,0.00,pywws,2013-07-31 23:56:00,
2013-07-31 20:02:00,74.1,62.4,29.98,South,180,3.1,4.5,67,0.00,,,0.00,pywws,2013-08-01 00:02:00,
2013-07-31 20:07:00,73.9,62.7,29.97,South,180,0.0,0.7,68,0.00,,,0.00,pywws,2013-08-01 00:07:00,
2013-07-31 20:12:00,73.8,62.9,29.97,South,180,1.6,3.8,69,0.00,,,0.00,pywws,2013-08-01 00:12:00,
2013-07-31 20:18:00,73.8,62.9,29.97,South,180,3.8,6.9,69,0.00,,,0.00,pywws,2013-08-01 00:18:00,
2013-07-31 20:23:00,73.6,63.2,29.97,South,180,3.1,4.5,70,0.00,,,0.00,pywws,2013-08-01 00:23:00,
2013-07-31 20:28:00,73.6,63.6,29.97,East,90,3.1,5.4,71,0.00,,,0.00,pywws,2013-08-01 00:28:00,
2013-07-31 20:34:00,73.4,63.4,29.97,South,180,2.2,3.8,71,0.00,,,0.00,pywws,2013-08-01 00:34:00,
2013-07-31 20:39:00,73.4,63.4,29.96,SE,135,2.2,3.8,71,0.00,,,0.00,pywws,2013-08-01 00:39:00,
2013-07-31 20:44:00,73.0,63.1,29.96,SE,135,3.8,5.4,71,0.00,,,0.00,pywws,2013-08-01 00:44:00,
2013-07-31 20:50:00,73.0,63.5,29.96,South,180,2.2,3.1,72,0.00,,,0.00,pywws,2013-08-01 00:50:00,
2013-07-31 20:55:00,73.0,63.5,29.97,SE,135,3.8,5.4,72,0.00,,,0.00,pywws,2013-08-01 00:55:00,
2013-07-31 21:01:00,73.0,63.5,29.97,SE,135,0.7,2.2,72,0.00,,,0.00,pywws,2013-08-01 01:01:00,
2013-07-31 21:06:00,72.9,63.3,29.97,SE,135,1.6,3.1,72,0.00,,,0.00,pywws,2013-08-01 01:06:00,
2013-07-31 21:11:00,72.9,63.3,29.98,SE,135,0.7,3.1,72,0.00,,,0.00,pywws,2013-08-01 01:11:00,
2013-07-31 21:17:00,72.5,63.3,29.98,South,180,0.7,2.2,73,0.00,,,0.00,pywws,2013-08-01 01:17:00,
2013-07-31 21:22:00,72.7,63.5,29.97,South,180,2.2,3.1,73,0.00,,,0.00,pywws,2013-08-01 01:22:00,
2013-07-31 21:27:00,72.5,63.3,29.97,South,180,3.1,3.8,73,0.00,,,0.00,pywws,2013-08-01 01:27:00,
2013-07-31 21:32:00,72.3,63.6,29.96,NW,315,3.8,6.0,74,0.00,,,0.00,pywws,2013-08-01 01:32:00,
2013-07-31 21:38:00,72.1,63.8,29.96,South,180,0.0,1.6,75,0.00,,,0.00,pywws,2013-08-01 01:38:00,
2013-07-31 21:43:00,72.1,63.8,29.97,South,180,0.7,1.6,75,0.00,,,0.00,pywws,2013-08-01 01:43:00,
2013-07-31 21:48:00,72.0,64.0,29.96,South,180,1.6,2.2,76,0.00,,,0.00,pywws,2013-08-01 01:48:00,
2013-07-31 21:54:00,71.8,63.8,29.96,SE,135,2.2,4.5,76,0.00,,,0.00,pywws,2013-08-01 01:54:00,
2013-07-31 21:59:00,71.8,64.2,29.96,SE,135,0.7,2.2,77,0.00,,,0.00,pywws,2013-08-01 01:59:00,
2013-07-31 22:05:00,71.8,64.2,29.96,SE,135,3.8,6.0,77,0.00,,,0.00,pywws,2013-08-01 02:05:00,
2013-07-31 22:11:00,71.8,64.2,29.96,South,180,0.7,2.2,77,0.00,,,0.00,pywws,2013-08-01 02:11:00,
2013-07-31 22:16:00,71.4,64.2,29.96,SE,135,1.6,3.8,78,0.00,,,0.00,pywws,2013-08-01 02:16:00,
2013-07-31 22:22:00,71.4,64.6,29.96,SE,135,1.6,3.1,79,0.00,,,0.00,pywws,2013-08-01 02:22:00,
2013-07-31 22:27:00,71.4,64.6,29.96,South,180,2.2,3.1,79,0.00,,,0.00,pywws,2013-08-01 02:27:00,
2013-07-31 22:33:00,71.2,64.7,29.96,SE,135,2.2,4.5,80,0.00,,,0.00,pywws,2013-08-01 02:33:00,
2013-07-31 22:39:00,71.2,64.7,29.96,South,180,0.7,1.6,80,0.00,,,0.00,pywws,2013-08-01 02:39:00,
2013-07-31 22:44:00,71.1,64.6,29.97,South,180,0.7,1.6,80,0.00,,,0.00,pywws,2013-08-01 02:44:00,
2013-07-31 22:50:00,70.9,64.7,29.97,South,180,1.6,2.2,81,0.00,,,0.00,pywws,2013-08-01 02:50:00,
2013-07-31 22:55:00,70.9,64.7,29.97,South,180,1.6,3.8,81,0.00,,,0.00,pywws,2013-08-01 02:55:00,
2013-07-31 23:01:00,70.9,64.7,29.96,South,180,3.8,6.9,81,0.00,,,0.00,pywws,2013-08-01 03:01:00,
2013-07-31 23:07:00,70.9,65.1,29.96,SE,135,4.5,6.0,82,0.00,,,0.00,pywws,2013-08-01 03:07:00,
2013-07-31 23:12:00,70.7,64.9,29.96,South,180,2.2,3.1,82,0.00,,,0.00,pywws,2013-08-01 03:12:00,
2013-07-31 23:18:00,70.7,64.9,29.96,NNE,22,49.4,49.4,82,99.99,,,99.99,pywws,2013-08-01 03:18:00,
2013-07-31 23:23:00,70.7,65.3,29.95,SE,135,3.8,4.5,83,0.00,,,0.00,pywws,2013-08-01 03:23:00,
2013-07-31 23:28:00,70.5,65.1,29.95,SE,135,3.1,5.4,83,0.00,,,0.00,pywws,2013-08-01 03:28:00,
2013-07-31 23:34:00,70.3,64.9,29.95,SW,225,2.2,3.8,83,0.00,,,0.00,pywws,2013-08-01 03:34:00,
2013-07-31 23:39:00,70.3,64.9,29.95,South,180,3.1,3.8,83,0.00,,,0.00,pywws,2013-08-01 03:39:00,
2013-07-31 23:44:00,70.3,64.9,29.95,South,180,1.6,3.1,83,0.00,,,0.00,pywws,2013-08-01 03:44:00,
2013-07-31 23:50:00,70.3,64.9,29.95,SE,135,3.8,6.0,83,0.00,,,0.00,pywws,2013-08-01 03:50:00,
2013-07-31 23:55:00,70.3,64.9,29.94,SE,135,3.1,7.6,83,0.00,,,0.00,pywws,2013-08-01 03:55:00,